sensor_id;sensor_type;location;lat;lon;timestamp;P1;durP1;ratioP1;P2;durP2;ratioP2
7719;SDS011;3902;49.474;8.616;2022-11-30T00:00:17;19.10;;;15.63;;
7719;SDS011;3902;49.474;8.616;2022-11-30T00:02:44;18.53;;;15.80;;
7719;SDS011;3902;49.474;8.616;2022-11-30T00:05:10;20.17;;;16.50;;
7719;SDS011;3902;49.474;8.616;2022-11-30T00:07:36;22.53;;;16.30;;
7719;SDS011;3902;49.474;8.616;2022-11-30T00:10:02;19.73;;;15.33;;
7719;SDS011;3902;49.474;8.616;2022-11-30T00:12:28;18.00;;;15.63;;
7719;SDS011;3902;49.474;8.616;2022-11-30T00:14:54;17.27;;;14.60;;
7719;SDS011;3902;49.474;8.616;2022-11-30T00:17:19;19.80;;;16.00;;
7719;SDS011;3902;49.474;8.616;2022-11-30T00:19:45;18.30;;;15.33;;
7719;SDS011;3902;49.474;8.616;2022-11-30T00:22:10;18.10;;;15.73;;
7719;SDS011;3902;49.474;8.616;2022-11-30T00:24:36;18.63;;;15.10;;
7719;SDS011;3902;49.474;8.616;2022-11-30T00:27:01;19.80;;;16.13;;
7719;SDS011;3902;49.474;8.616;2022-11-30T00:29:27;16.83;;;15.00;;
7719;SDS011;3902;49.474;8.616;2022-11-30T00:31:52;18.20;;;15.90;;
7719;SDS011;3902;49.474;8.616;2022-11-30T00:34:18;16.90;;;14.60;;
7719;SDS011;3902;49.474;8.616;2022-11-30T00:36:43;18.67;;;14.60;;
7719;SDS011;3902;49.474;8.616;2022-11-30T00:39:09;17.10;;;14.63;;
7719;SDS011;3902;49.474;8.616;2022-11-30T00:41:35;16.30;;;14.30;;
7719;SDS011;3902;49.474;8.616;2022-11-30T00:44:00;20.10;;;15.67;;
7719;SDS011;3902;49.474;8.616;2022-11-30T00:46:26;18.53;;;16.00;;
7719;SDS011;3902;49.474;8.616;2022-11-30T00:48:51;17.87;;;15.93;;
7719;SDS011;3902;49.474;8.616;2022-11-30T00:51:17;19.50;;;16.53;;
7719;SDS011;3902;49.474;8.616;2022-11-30T00:53:43;20.50;;;15.93;;
7719;SDS011;3902;49.474;8.616;2022-11-30T00:56:09;19.80;;;15.60;;
7719;SDS011;3902;49.474;8.616;2022-11-30T00:58:34;18.03;;;15.40;;
7719;SDS011;3902;49.474;8.616;2022-11-30T01:01:00;19.50;;;15.30;;
7719;SDS011;3902;49.474;8.616;2022-11-30T01:03:26;19.87;;;16.20;;
7719;SDS011;3902;49.474;8.616;2022-11-30T01:05:51;19.87;;;16.23;;
7719;SDS011;3902;49.474;8.616;2022-11-30T01:08:17;18.67;;;15.00;;
7719;SDS011;3902;49.474;8.616;2022-11-30T01:10:43;20.17;;;16.63;;
7719;SDS011;3902;49.474;8.616;2022-11-30T01:13:10;20.80;;;16.50;;
7719;SDS011;3902;49.474;8.616;2022-11-30T01:15:41;22.17;;;17.33;;
7719;SDS011;3902;49.474;8.616;2022-11-30T01:18:07;22.40;;;17.30;;
7719;SDS011;3902;49.474;8.616;2022-11-30T01:20:33;22.97;;;17.27;;
7719;SDS011;3902;49.474;8.616;2022-11-30T01:23:03;22.50;;;16.23;;
7719;SDS011;3902;49.474;8.616;2022-11-30T01:25:28;23.53;;;16.47;;
7719;SDS011;3902;49.474;8.616;2022-11-30T01:27:54;25.20;;;16.93;;
7719;SDS011;3902;49.474;8.616;2022-11-30T01:30:19;23.10;;;17.60;;
7719;SDS011;3902;49.474;8.616;2022-11-30T01:32:45;22.00;;;18.20;;
7719;SDS011;3902;49.474;8.616;2022-11-30T01:35:10;21.10;;;17.00;;
7719;SDS011;3902;49.474;8.616;2022-11-30T01:37:36;26.63;;;18.23;;
7719;SDS011;3902;49.474;8.616;2022-11-30T01:40:02;24.00;;;18.20;;
7719;SDS011;3902;49.474;8.616;2022-11-30T01:42:27;26.70;;;18.90;;
7719;SDS011;3902;49.474;8.616;2022-11-30T01:45:00;23.60;;;17.23;;
7719;SDS011;3902;49.474;8.616;2022-11-30T01:47:36;22.90;;;17.27;;
7719;SDS011;3902;49.474;8.616;2022-11-30T01:50:14;21.73;;;17.03;;
7719;SDS011;3902;49.474;8.616;2022-11-30T01:52:42;24.70;;;18.97;;
7719;SDS011;3902;49.474;8.616;2022-11-30T01:57:48;24.03;;;16.33;;
7719;SDS011;3902;49.474;8.616;2022-11-30T02:00:16;27.13;;;17.67;;
7719;SDS011;3902;49.474;8.616;2022-11-30T02:02:55;22.47;;;16.83;;
7719;SDS011;3902;49.474;8.616;2022-11-30T02:05:30;21.37;;;16.90;;
7719;SDS011;3902;49.474;8.616;2022-11-30T02:07:58;23.67;;;18.07;;
7719;SDS011;3902;49.474;8.616;2022-11-30T02:10:29;22.13;;;17.73;;
7719;SDS011;3902;49.474;8.616;2022-11-30T02:13:07;21.70;;;16.47;;
7719;SDS011;3902;49.474;8.616;2022-11-30T02:15:48;22.37;;;17.30;;
7719;SDS011;3902;49.474;8.616;2022-11-30T02:18:19;21.33;;;17.37;;
7719;SDS011;3902;49.474;8.616;2022-11-30T02:21:03;20.93;;;16.70;;
7719;SDS011;3902;49.474;8.616;2022-11-30T02:31:42;20.83;;;17.00;;
7719;SDS011;3902;49.474;8.616;2022-11-30T02:34:09;22.83;;;17.70;;
7719;SDS011;3902;49.474;8.616;2022-11-30T02:36:37;22.00;;;18.10;;
7719;SDS011;3902;49.474;8.616;2022-11-30T02:39:04;23.30;;;18.07;;
7719;SDS011;3902;49.474;8.616;2022-11-30T02:41:34;21.60;;;17.80;;
7719;SDS011;3902;49.474;8.616;2022-11-30T02:44:04;20.87;;;16.93;;
7719;SDS011;3902;49.474;8.616;2022-11-30T02:49:06;19.10;;;16.67;;
7719;SDS011;3902;49.474;8.616;2022-11-30T02:51:40;21.00;;;17.77;;
7719;SDS011;3902;49.474;8.616;2022-11-30T02:54:07;18.70;;;16.70;;
7719;SDS011;3902;49.474;8.616;2022-11-30T02:56:33;19.60;;;16.17;;
7719;SDS011;3902;49.474;8.616;2022-11-30T02:58:59;18.47;;;16.13;;
7719;SDS011;3902;49.474;8.616;2022-11-30T03:01:24;21.93;;;16.67;;
7719;SDS011;3902;49.474;8.616;2022-11-30T03:03:50;21.27;;;17.30;;
7719;SDS011;3902;49.474;8.616;2022-11-30T03:06:15;18.20;;;14.70;;
7719;SDS011;3902;49.474;8.616;2022-11-30T03:08:41;23.50;;;17.30;;
7719;SDS011;3902;49.474;8.616;2022-11-30T03:11:06;20.23;;;16.80;;
7719;SDS011;3902;49.474;8.616;2022-11-30T03:13:32;19.80;;;16.07;;
7719;SDS011;3902;49.474;8.616;2022-11-30T03:16:08;20.27;;;17.10;;
7719;SDS011;3902;49.474;8.616;2022-11-30T03:18:36;19.50;;;16.67;;
7719;SDS011;3902;49.474;8.616;2022-11-30T03:21:05;19.00;;;16.30;;
7719;SDS011;3902;49.474;8.616;2022-11-30T03:23:32;19.00;;;16.23;;
7719;SDS011;3902;49.474;8.616;2022-11-30T03:25:59;20.57;;;15.40;;
7719;SDS011;3902;49.474;8.616;2022-11-30T03:28:25;17.40;;;15.40;;
7719;SDS011;3902;49.474;8.616;2022-11-30T03:30:51;20.60;;;16.70;;
7719;SDS011;3902;49.474;8.616;2022-11-30T03:33:16;20.50;;;16.33;;
7719;SDS011;3902;49.474;8.616;2022-11-30T03:35:42;22.00;;;16.80;;
7719;SDS011;3902;49.474;8.616;2022-11-30T03:38:08;20.60;;;17.20;;
7719;SDS011;3902;49.474;8.616;2022-11-30T03:40:37;20.77;;;17.07;;
7719;SDS011;3902;49.474;8.616;2022-11-30T03:43:03;18.37;;;14.90;;
7719;SDS011;3902;49.474;8.616;2022-11-30T03:45:28;18.07;;;15.17;;
7719;SDS011;3902;49.474;8.616;2022-11-30T03:47:54;20.80;;;16.10;;
7719;SDS011;3902;49.474;8.616;2022-11-30T03:50:20;20.97;;;16.60;;
7719;SDS011;3902;49.474;8.616;2022-11-30T03:52:46;17.73;;;15.83;;
7719;SDS011;3902;49.474;8.616;2022-11-30T03:55:11;21.53;;;16.37;;
7719;SDS011;3902;49.474;8.616;2022-11-30T03:57:37;19.07;;;15.70;;
7719;SDS011;3902;49.474;8.616;2022-11-30T04:00:03;22.97;;;17.20;;
7719;SDS011;3902;49.474;8.616;2022-11-30T04:02:30;19.07;;;15.50;;
7719;SDS011;3902;49.474;8.616;2022-11-30T04:04:55;19.50;;;15.43;;
7719;SDS011;3902;49.474;8.616;2022-11-30T04:07:21;18.23;;;15.83;;
7719;SDS011;3902;49.474;8.616;2022-11-30T04:09:46;19.30;;;15.20;;
7719;SDS011;3902;49.474;8.616;2022-11-30T04:12:12;16.83;;;14.80;;
7719;SDS011;3902;49.474;8.616;2022-11-30T04:14:37;18.10;;;15.40;;
7719;SDS011;3902;49.474;8.616;2022-11-30T04:17:03;19.43;;;15.60;;
7719;SDS011;3902;49.474;8.616;2022-11-30T04:19:28;18.03;;;15.60;;
7719;SDS011;3902;49.474;8.616;2022-11-30T04:21:54;19.20;;;16.10;;
7719;SDS011;3902;49.474;8.616;2022-11-30T04:24:19;22.77;;;16.07;;
7719;SDS011;3902;49.474;8.616;2022-11-30T04:26:45;17.70;;;14.47;;
7719;SDS011;3902;49.474;8.616;2022-11-30T04:29:10;17.87;;;15.47;;
7719;SDS011;3902;49.474;8.616;2022-11-30T04:31:36;19.60;;;15.40;;
7719;SDS011;3902;49.474;8.616;2022-11-30T04:34:01;20.77;;;15.87;;
7719;SDS011;3902;49.474;8.616;2022-11-30T04:36:27;20.67;;;16.83;;
7719;SDS011;3902;49.474;8.616;2022-11-30T04:38:52;21.23;;;16.37;;
7719;SDS011;3902;49.474;8.616;2022-11-30T04:41:18;21.43;;;15.20;;
7719;SDS011;3902;49.474;8.616;2022-11-30T04:43:43;18.40;;;15.30;;
7719;SDS011;3902;49.474;8.616;2022-11-30T04:46:09;18.47;;;14.23;;
7719;SDS011;3902;49.474;8.616;2022-11-30T04:48:35;18.43;;;15.33;;
7719;SDS011;3902;49.474;8.616;2022-11-30T04:51:01;17.70;;;15.17;;
7719;SDS011;3902;49.474;8.616;2022-11-30T04:53:31;18.00;;;15.20;;
7719;SDS011;3902;49.474;8.616;2022-11-30T04:55:57;19.33;;;15.07;;
7719;SDS011;3902;49.474;8.616;2022-11-30T04:58:23;19.23;;;15.50;;
7719;SDS011;3902;49.474;8.616;2022-11-30T05:00:48;22.13;;;15.60;;
7719;SDS011;3902;49.474;8.616;2022-11-30T05:03:17;23.33;;;16.60;;
7719;SDS011;3902;49.474;8.616;2022-11-30T05:05:42;21.17;;;15.70;;
7719;SDS011;3902;49.474;8.616;2022-11-30T05:08:08;19.20;;;14.97;;
7719;SDS011;3902;49.474;8.616;2022-11-30T05:10:33;20.43;;;15.13;;
7719;SDS011;3902;49.474;8.616;2022-11-30T05:12:59;24.23;;;16.90;;
7719;SDS011;3902;49.474;8.616;2022-11-30T05:15:25;22.60;;;15.00;;
7719;SDS011;3902;49.474;8.616;2022-11-30T05:17:50;22.33;;;16.40;;
7719;SDS011;3902;49.474;8.616;2022-11-30T05:20:16;19.33;;;15.60;;
7719;SDS011;3902;49.474;8.616;2022-11-30T05:22:41;21.70;;;15.67;;
7719;SDS011;3902;49.474;8.616;2022-11-30T05:25:07;23.20;;;16.37;;
7719;SDS011;3902;49.474;8.616;2022-11-30T05:27:33;20.03;;;15.77;;
7719;SDS011;3902;49.474;8.616;2022-11-30T05:29:59;18.87;;;14.83;;
7719;SDS011;3902;49.474;8.616;2022-11-30T05:32:25;22.80;;;17.00;;
7719;SDS011;3902;49.474;8.616;2022-11-30T05:34:50;20.97;;;15.40;;
7719;SDS011;3902;49.474;8.616;2022-11-30T05:37:16;22.70;;;15.60;;
7719;SDS011;3902;49.474;8.616;2022-11-30T05:39:41;19.97;;;15.03;;
7719;SDS011;3902;49.474;8.616;2022-11-30T05:42:07;21.10;;;15.60;;
7719;SDS011;3902;49.474;8.616;2022-11-30T05:44:33;23.60;;;18.53;;
7719;SDS011;3902;49.474;8.616;2022-11-30T05:46:58;18.27;;;15.73;;
7719;SDS011;3902;49.474;8.616;2022-11-30T05:49:24;22.67;;;16.03;;
7719;SDS011;3902;49.474;8.616;2022-11-30T05:51:49;21.77;;;16.70;;
7719;SDS011;3902;49.474;8.616;2022-11-30T05:54:15;23.67;;;16.03;;
7719;SDS011;3902;49.474;8.616;2022-11-30T05:56:40;21.07;;;16.00;;
7719;SDS011;3902;49.474;8.616;2022-11-30T05:59:06;22.83;;;16.37;;
7719;SDS011;3902;49.474;8.616;2022-11-30T06:01:33;21.77;;;17.07;;
7719;SDS011;3902;49.474;8.616;2022-11-30T06:03:58;20.57;;;16.40;;
7719;SDS011;3902;49.474;8.616;2022-11-30T06:06:24;22.80;;;16.43;;
7719;SDS011;3902;49.474;8.616;2022-11-30T06:08:49;21.60;;;16.77;;
7719;SDS011;3902;49.474;8.616;2022-11-30T06:11:15;22.97;;;16.70;;
7719;SDS011;3902;49.474;8.616;2022-11-30T06:13:42;23.83;;;17.13;;
7719;SDS011;3902;49.474;8.616;2022-11-30T06:16:08;22.67;;;16.43;;
7719;SDS011;3902;49.474;8.616;2022-11-30T06:18:34;21.90;;;16.60;;
7719;SDS011;3902;49.474;8.616;2022-11-30T06:21:04;24.73;;;17.47;;
7719;SDS011;3902;49.474;8.616;2022-11-30T06:23:32;20.23;;;15.67;;
7719;SDS011;3902;49.474;8.616;2022-11-30T06:25:58;21.60;;;16.90;;
7719;SDS011;3902;49.474;8.616;2022-11-30T06:28:28;21.93;;;16.33;;
7719;SDS011;3902;49.474;8.616;2022-11-30T06:30:57;19.97;;;15.40;;
7719;SDS011;3902;49.474;8.616;2022-11-30T06:33:23;20.40;;;16.03;;
7719;SDS011;3902;49.474;8.616;2022-11-30T06:35:48;21.97;;;16.40;;
7719;SDS011;3902;49.474;8.616;2022-11-30T06:38:15;22.60;;;15.90;;
7719;SDS011;3902;49.474;8.616;2022-11-30T06:40:40;25.47;;;17.47;;
7719;SDS011;3902;49.474;8.616;2022-11-30T06:43:06;21.90;;;15.50;;
7719;SDS011;3902;49.474;8.616;2022-11-30T06:45:31;21.07;;;15.33;;
7719;SDS011;3902;49.474;8.616;2022-11-30T06:47:57;22.37;;;15.40;;
7719;SDS011;3902;49.474;8.616;2022-11-30T06:50:23;21.27;;;16.17;;
7719;SDS011;3902;49.474;8.616;2022-11-30T06:52:48;22.60;;;17.83;;
7719;SDS011;3902;49.474;8.616;2022-11-30T06:55:14;22.70;;;16.20;;
7719;SDS011;3902;49.474;8.616;2022-11-30T06:57:40;24.90;;;16.20;;
7719;SDS011;3902;49.474;8.616;2022-11-30T07:00:07;21.47;;;16.97;;
7719;SDS011;3902;49.474;8.616;2022-11-30T07:02:33;17.50;;;15.40;;
7719;SDS011;3902;49.474;8.616;2022-11-30T07:04:59;22.00;;;15.80;;
7719;SDS011;3902;49.474;8.616;2022-11-30T07:07:24;28.20;;;16.60;;
7719;SDS011;3902;49.474;8.616;2022-11-30T07:09:52;23.20;;;17.30;;
7719;SDS011;3902;49.474;8.616;2022-11-30T07:12:17;21.50;;;15.77;;
7719;SDS011;3902;49.474;8.616;2022-11-30T07:14:43;22.33;;;16.40;;
7719;SDS011;3902;49.474;8.616;2022-11-30T07:17:08;20.93;;;16.00;;
7719;SDS011;3902;49.474;8.616;2022-11-30T07:19:34;21.27;;;16.77;;
7719;SDS011;3902;49.474;8.616;2022-11-30T07:22:00;21.43;;;17.00;;
7719;SDS011;3902;49.474;8.616;2022-11-30T07:24:25;22.50;;;17.17;;
7719;SDS011;3902;49.474;8.616;2022-11-30T07:27:10;25.03;;;18.23;;
7719;SDS011;3902;49.474;8.616;2022-11-30T07:29:35;23.90;;;16.50;;
7719;SDS011;3902;49.474;8.616;2022-11-30T07:32:01;20.07;;;15.87;;
7719;SDS011;3902;49.474;8.616;2022-11-30T07:34:26;23.60;;;16.40;;
7719;SDS011;3902;49.474;8.616;2022-11-30T07:36:52;20.33;;;15.80;;
7719;SDS011;3902;49.474;8.616;2022-11-30T07:39:17;17.00;;;14.97;;
7719;SDS011;3902;49.474;8.616;2022-11-30T07:41:43;22.00;;;17.30;;
7719;SDS011;3902;49.474;8.616;2022-11-30T07:44:09;25.00;;;16.30;;
7719;SDS011;3902;49.474;8.616;2022-11-30T07:46:36;22.23;;;16.43;;
7719;SDS011;3902;49.474;8.616;2022-11-30T07:49:02;22.50;;;16.00;;
7719;SDS011;3902;49.474;8.616;2022-11-30T07:51:29;24.07;;;16.50;;
7719;SDS011;3902;49.474;8.616;2022-11-30T07:53:55;26.47;;;17.10;;
7719;SDS011;3902;49.474;8.616;2022-11-30T07:56:21;20.33;;;15.33;;
7719;SDS011;3902;49.474;8.616;2022-11-30T07:58:48;19.70;;;14.73;;
7719;SDS011;3902;49.474;8.616;2022-11-30T08:01:16;22.50;;;16.10;;
7719;SDS011;3902;49.474;8.616;2022-11-30T08:03:42;21.47;;;16.27;;
7719;SDS011;3902;49.474;8.616;2022-11-30T08:06:10;25.70;;;16.37;;
7719;SDS011;3902;49.474;8.616;2022-11-30T08:08:38;23.13;;;16.23;;
7719;SDS011;3902;49.474;8.616;2022-11-30T08:11:06;22.90;;;15.83;;
7719;SDS011;3902;49.474;8.616;2022-11-30T08:13:33;22.03;;;16.70;;
7719;SDS011;3902;49.474;8.616;2022-11-30T08:16:02;25.03;;;18.10;;
7719;SDS011;3902;49.474;8.616;2022-11-30T08:18:29;22.70;;;16.23;;
7719;SDS011;3902;49.474;8.616;2022-11-30T08:20:58;25.90;;;17.83;;
7719;SDS011;3902;49.474;8.616;2022-11-30T08:23:46;22.00;;;16.70;;
7719;SDS011;3902;49.474;8.616;2022-11-30T08:26:31;21.33;;;16.70;;
7719;SDS011;3902;49.474;8.616;2022-11-30T08:28:58;20.80;;;16.80;;
7719;SDS011;3902;49.474;8.616;2022-11-30T08:31:28;20.20;;;16.67;;
7719;SDS011;3902;49.474;8.616;2022-11-30T08:33:56;21.50;;;16.87;;
7719;SDS011;3902;49.474;8.616;2022-11-30T08:36:23;21.87;;;17.63;;
7719;SDS011;3902;49.474;8.616;2022-11-30T08:38:50;22.40;;;17.60;;
7719;SDS011;3902;49.474;8.616;2022-11-30T08:41:17;23.73;;;16.97;;
7719;SDS011;3902;49.474;8.616;2022-11-30T08:43:45;21.43;;;17.00;;
7719;SDS011;3902;49.474;8.616;2022-11-30T08:46:12;22.63;;;16.40;;
7719;SDS011;3902;49.474;8.616;2022-11-30T08:48:39;18.13;;;15.50;;
7719;SDS011;3902;49.474;8.616;2022-11-30T08:51:06;20.27;;;15.90;;
7719;SDS011;3902;49.474;8.616;2022-11-30T08:53:34;18.90;;;15.87;;
7719;SDS011;3902;49.474;8.616;2022-11-30T08:56:00;21.30;;;16.47;;
7719;SDS011;3902;49.474;8.616;2022-11-30T08:58:29;20.13;;;16.33;;
7719;SDS011;3902;49.474;8.616;2022-11-30T09:01:18;21.10;;;16.67;;
7719;SDS011;3902;49.474;8.616;2022-11-30T09:03:46;20.17;;;16.40;;
7719;SDS011;3902;49.474;8.616;2022-11-30T09:06:14;24.20;;;17.40;;
7719;SDS011;3902;49.474;8.616;2022-11-30T09:08:42;24.03;;;18.23;;
7719;SDS011;3902;49.474;8.616;2022-11-30T09:13:43;25.93;;;18.40;;
7719;SDS011;3902;49.474;8.616;2022-11-30T09:16:09;21.93;;;17.47;;
7719;SDS011;3902;49.474;8.616;2022-11-30T09:18:36;21.27;;;16.73;;
7719;SDS011;3902;49.474;8.616;2022-11-30T09:21:03;22.47;;;17.00;;
7719;SDS011;3902;49.474;8.616;2022-11-30T09:23:30;27.77;;;17.87;;
7719;SDS011;3902;49.474;8.616;2022-11-30T09:25:59;20.27;;;16.50;;
7719;SDS011;3902;49.474;8.616;2022-11-30T09:28:26;20.97;;;17.03;;
7719;SDS011;3902;49.474;8.616;2022-11-30T09:30:58;21.27;;;17.30;;
7719;SDS011;3902;49.474;8.616;2022-11-30T09:33:28;20.97;;;15.80;;
7719;SDS011;3902;49.474;8.616;2022-11-30T09:35:58;24.10;;;16.33;;
7719;SDS011;3902;49.474;8.616;2022-11-30T09:38:25;18.80;;;16.17;;
7719;SDS011;3902;49.474;8.616;2022-11-30T09:40:53;16.93;;;15.03;;
7719;SDS011;3902;49.474;8.616;2022-11-30T09:46:14;18.27;;;15.53;;
7719;SDS011;3902;49.474;8.616;2022-11-30T09:51:43;17.80;;;15.10;;
7719;SDS011;3902;49.474;8.616;2022-11-30T09:54:52;18.13;;;15.37;;
7719;SDS011;3902;49.474;8.616;2022-11-30T09:57:17;16.80;;;14.90;;
7719;SDS011;3902;49.474;8.616;2022-11-30T09:59:47;18.73;;;15.33;;
7719;SDS011;3902;49.474;8.616;2022-11-30T10:02:18;16.47;;;13.37;;
7719;SDS011;3902;49.474;8.616;2022-11-30T10:04:46;17.47;;;13.50;;
7719;SDS011;3902;49.474;8.616;2022-11-30T10:07:25;18.87;;;15.20;;
7719;SDS011;3902;49.474;8.616;2022-11-30T10:12:56;20.20;;;14.67;;
7719;SDS011;3902;49.474;8.616;2022-11-30T10:15:50;19.93;;;15.37;;
7719;SDS011;3902;49.474;8.616;2022-11-30T10:18:36;20.10;;;15.33;;
7719;SDS011;3902;49.474;8.616;2022-11-30T10:26:52;19.30;;;15.30;;
7719;SDS011;3902;49.474;8.616;2022-11-30T10:29:23;17.53;;;15.00;;
7719;SDS011;3902;49.474;8.616;2022-11-30T10:31:56;17.20;;;14.30;;
7719;SDS011;3902;49.474;8.616;2022-11-30T10:34:34;16.10;;;13.97;;
7719;SDS011;3902;49.474;8.616;2022-11-30T10:37:05;16.70;;;14.50;;
7719;SDS011;3902;49.474;8.616;2022-11-30T10:42:45;15.07;;;13.53;;
7719;SDS011;3902;49.474;8.616;2022-11-30T10:45:16;19.30;;;14.70;;
7719;SDS011;3902;49.474;8.616;2022-11-30T10:47:47;19.13;;;14.83;;
7719;SDS011;3902;49.474;8.616;2022-11-30T10:50:20;18.80;;;15.83;;
7719;SDS011;3902;49.474;8.616;2022-11-30T10:52:52;17.20;;;14.57;;
7719;SDS011;3902;49.474;8.616;2022-11-30T10:55:22;16.57;;;14.70;;
7719;SDS011;3902;49.474;8.616;2022-11-30T10:57:53;17.37;;;13.30;;
7719;SDS011;3902;49.474;8.616;2022-11-30T11:00:24;17.90;;;15.47;;
7719;SDS011;3902;49.474;8.616;2022-11-30T11:02:49;19.07;;;14.30;;
7719;SDS011;3902;49.474;8.616;2022-11-30T11:07:59;15.13;;;13.30;;
7719;SDS011;3902;49.474;8.616;2022-11-30T11:10:28;15.00;;;12.77;;
7719;SDS011;3902;49.474;8.616;2022-11-30T11:12:58;14.10;;;12.60;;
7719;SDS011;3902;49.474;8.616;2022-11-30T11:15:28;13.73;;;12.33;;
7719;SDS011;3902;49.474;8.616;2022-11-30T11:20:40;12.93;;;11.57;;
7719;SDS011;3902;49.474;8.616;2022-11-30T11:23:19;12.23;;;10.93;;
7719;SDS011;3902;49.474;8.616;2022-11-30T11:25:48;12.77;;;11.47;;
7719;SDS011;3902;49.474;8.616;2022-11-30T11:28:17;12.77;;;11.20;;
7719;SDS011;3902;49.474;8.616;2022-11-30T11:30:45;11.37;;;10.17;;
7719;SDS011;3902;49.474;8.616;2022-11-30T11:40:53;11.43;;;10.27;;
7719;SDS011;3902;49.474;8.616;2022-11-30T11:43:22;12.40;;;10.83;;
7719;SDS011;3902;49.474;8.616;2022-11-30T11:45:55;10.60;;;9.50;;
7719;SDS011;3902;49.474;8.616;2022-11-30T11:48:28;11.13;;;9.87;;
7719;SDS011;3902;49.474;8.616;2022-11-30T11:50:58;9.07;;;8.17;;
7719;SDS011;3902;49.474;8.616;2022-11-30T11:56:15;10.70;;;9.70;;
7719;SDS011;3902;49.474;8.616;2022-11-30T11:59:01;9.87;;;8.90;;
7719;SDS011;3902;49.474;8.616;2022-11-30T12:07:39;9.33;;;8.43;;
7719;SDS011;3902;49.474;8.616;2022-11-30T12:13:16;8.73;;;7.90;;
7719;SDS011;3902;49.474;8.616;2022-11-30T12:21:27;9.60;;;8.70;;
7719;SDS011;3902;49.474;8.616;2022-11-30T12:24:13;9.90;;;8.87;;
7719;SDS011;3902;49.474;8.616;2022-11-30T12:26:54;9.37;;;8.47;;
7719;SDS011;3902;49.474;8.616;2022-11-30T12:32:12;9.93;;;8.93;;
7719;SDS011;3902;49.474;8.616;2022-11-30T12:45:41;9.43;;;8.40;;
7719;SDS011;3902;49.474;8.616;2022-11-30T12:53:26;9.57;;;8.67;;
7719;SDS011;3902;49.474;8.616;2022-11-30T13:05:29;11.17;;;9.90;;
7719;SDS011;3902;49.474;8.616;2022-11-30T13:08:04;9.87;;;8.87;;
7719;SDS011;3902;49.474;8.616;2022-11-30T13:10:53;11.07;;;9.97;;
7719;SDS011;3902;49.474;8.616;2022-11-30T13:13:23;9.00;;;8.20;;
7719;SDS011;3902;49.474;8.616;2022-11-30T13:15:52;10.30;;;9.30;;
7719;SDS011;3902;49.474;8.616;2022-11-30T13:18:18;10.67;;;9.17;;
7719;SDS011;3902;49.474;8.616;2022-11-30T13:23:12;9.97;;;8.97;;
7719;SDS011;3902;49.474;8.616;2022-11-30T13:26:10;10.00;;;9.03;;
7719;SDS011;3902;49.474;8.616;2022-11-30T13:29:02;9.70;;;8.80;;
7719;SDS011;3902;49.474;8.616;2022-11-30T13:32:01;9.93;;;9.03;;
7719;SDS011;3902;49.474;8.616;2022-11-30T13:34:40;10.40;;;9.40;;
7719;SDS011;3902;49.474;8.616;2022-11-30T13:37:07;9.83;;;8.93;;
7719;SDS011;3902;49.474;8.616;2022-11-30T13:39:47;16.17;;;10.10;;
7719;SDS011;3902;49.474;8.616;2022-11-30T13:47:37;128.30;;;23.37;;
7719;SDS011;3902;49.474;8.616;2022-11-30T13:50:08;58.37;;;18.70;;
7719;SDS011;3902;49.474;8.616;2022-11-30T13:58:02;113.97;;;21.17;;
7719;SDS011;3902;49.474;8.616;2022-11-30T14:03:14;89.27;;;19.77;;
7719;SDS011;3902;49.474;8.616;2022-11-30T14:05:44;69.27;;;18.03;;
7719;SDS011;3902;49.474;8.616;2022-11-30T14:08:36;42.03;;;15.97;;
7719;SDS011;3902;49.474;8.616;2022-11-30T14:17:27;17.73;;;11.17;;
7719;SDS011;3902;49.474;8.616;2022-11-30T14:19:58;14.70;;;10.40;;
7719;SDS011;3902;49.474;8.616;2022-11-30T14:22:54;13.53;;;9.97;;
7719;SDS011;3902;49.474;8.616;2022-11-30T14:25:20;11.50;;;10.30;;
7719;SDS011;3902;49.474;8.616;2022-11-30T14:27:46;11.40;;;10.03;;
7719;SDS011;3902;49.474;8.616;2022-11-30T14:30:20;13.90;;;8.87;;
7719;SDS011;3902;49.474;8.616;2022-11-30T14:32:48;11.13;;;10.00;;
7719;SDS011;3902;49.474;8.616;2022-11-30T14:35:19;12.03;;;9.13;;
7719;SDS011;3902;49.474;8.616;2022-11-30T14:37:52;10.97;;;9.87;;
7719;SDS011;3902;49.474;8.616;2022-11-30T14:40:21;10.07;;;9.07;;
7719;SDS011;3902;49.474;8.616;2022-11-30T14:42:51;10.10;;;9.10;;
7719;SDS011;3902;49.474;8.616;2022-11-30T14:45:19;10.20;;;9.20;;
7719;SDS011;3902;49.474;8.616;2022-11-30T14:47:51;11.27;;;9.30;;
7719;SDS011;3902;49.474;8.616;2022-11-30T14:50:27;10.17;;;9.17;;
7719;SDS011;3902;49.474;8.616;2022-11-30T14:52:56;12.57;;;10.00;;
7719;SDS011;3902;49.474;8.616;2022-11-30T14:55:49;10.97;;;9.87;;
7719;SDS011;3902;49.474;8.616;2022-11-30T15:01:17;11.37;;;10.17;;
7719;SDS011;3902;49.474;8.616;2022-11-30T15:03:44;12.67;;;10.70;;
7719;SDS011;3902;49.474;8.616;2022-11-30T15:06:18;11.40;;;9.80;;
7719;SDS011;3902;49.474;8.616;2022-11-30T15:08:55;13.03;;;8.63;;
7719;SDS011;3902;49.474;8.616;2022-11-30T15:11:22;8.90;;;8.00;;
7719;SDS011;3902;49.474;8.616;2022-11-30T15:13:49;9.53;;;8.53;;
7719;SDS011;3902;49.474;8.616;2022-11-30T15:16:25;9.57;;;8.57;;
7719;SDS011;3902;49.474;8.616;2022-11-30T15:18:52;9.10;;;8.30;;
7719;SDS011;3902;49.474;8.616;2022-11-30T15:21:23;9.43;;;8.53;;
7719;SDS011;3902;49.474;8.616;2022-11-30T15:23:51;9.53;;;8.63;;
7719;SDS011;3902;49.474;8.616;2022-11-30T15:26:29;11.40;;;10.20;;
7719;SDS011;3902;49.474;8.616;2022-11-30T15:31:41;12.80;;;10.70;;
7719;SDS011;3902;49.474;8.616;2022-11-30T15:36:44;10.60;;;9.47;;
7719;SDS011;3902;49.474;8.616;2022-11-30T15:39:15;9.73;;;8.73;;
7719;SDS011;3902;49.474;8.616;2022-11-30T15:41:51;8.83;;;8.03;;
7719;SDS011;3902;49.474;8.616;2022-11-30T15:44:22;7.83;;;7.03;;
7719;SDS011;3902;49.474;8.616;2022-11-30T15:46:54;11.13;;;9.93;;
7719;SDS011;3902;49.474;8.616;2022-11-30T15:49:25;12.80;;;11.40;;
7719;SDS011;3902;49.474;8.616;2022-11-30T15:54:40;12.47;;;11.13;;
7719;SDS011;3902;49.474;8.616;2022-11-30T15:57:20;11.47;;;10.23;;
7719;SDS011;3902;49.474;8.616;2022-11-30T16:02:32;9.40;;;8.40;;
7719;SDS011;3902;49.474;8.616;2022-11-30T16:07:38;9.07;;;8.17;;
7719;SDS011;3902;49.474;8.616;2022-11-30T16:10:13;9.20;;;8.20;;
7719;SDS011;3902;49.474;8.616;2022-11-30T16:12:43;9.03;;;7.90;;
7719;SDS011;3902;49.474;8.616;2022-11-30T16:17:46;7.73;;;6.97;;
7719;SDS011;3902;49.474;8.616;2022-11-30T16:20:12;8.30;;;7.50;;
7719;SDS011;3902;49.474;8.616;2022-11-30T16:22:42;7.70;;;6.90;;
7719;SDS011;3902;49.474;8.616;2022-11-30T16:25:12;7.77;;;7.07;;
7719;SDS011;3902;49.474;8.616;2022-11-30T16:27:43;7.83;;;7.07;;
7719;SDS011;3902;49.474;8.616;2022-11-30T16:30:11;8.97;;;8.03;;
7719;SDS011;3902;49.474;8.616;2022-11-30T16:32:39;8.90;;;8.00;;
7719;SDS011;3902;49.474;8.616;2022-11-30T16:35:39;9.33;;;8.37;;
7719;SDS011;3902;49.474;8.616;2022-11-30T16:38:00;7.83;;;7.10;;
7719;SDS011;3902;49.474;8.616;2022-11-30T16:40:25;7.80;;;6.80;;
7719;SDS011;3902;49.474;8.616;2022-11-30T16:42:51;7.90;;;7.10;;
7719;SDS011;3902;49.474;8.616;2022-11-30T16:45:18;8.07;;;7.27;;
7719;SDS011;3902;49.474;8.616;2022-11-30T16:47:45;8.13;;;7.40;;
7719;SDS011;3902;49.474;8.616;2022-11-30T16:50:11;8.63;;;7.73;;
7719;SDS011;3902;49.474;8.616;2022-11-30T16:52:38;9.27;;;8.37;;
7719;SDS011;3902;49.474;8.616;2022-11-30T16:55:11;8.97;;;8.07;;
7719;SDS011;3902;49.474;8.616;2022-11-30T16:57:42;9.93;;;8.03;;
7719;SDS011;3902;49.474;8.616;2022-11-30T17:00:08;9.00;;;7.90;;
7719;SDS011;3902;49.474;8.616;2022-11-30T17:02:36;9.00;;;7.43;;
7719;SDS011;3902;49.474;8.616;2022-11-30T17:05:03;9.37;;;8.40;;
7719;SDS011;3902;49.474;8.616;2022-11-30T17:07:30;11.10;;;9.50;;
7719;SDS011;3902;49.474;8.616;2022-11-30T17:09:55;10.70;;;9.60;;
7719;SDS011;3902;49.474;8.616;2022-11-30T17:12:21;11.57;;;9.67;;
7719;SDS011;3902;49.474;8.616;2022-11-30T17:14:46;13.30;;;10.70;;
7719;SDS011;3902;49.474;8.616;2022-11-30T17:17:12;15.60;;;14.10;;